Altamonte Springs, FL

8:09 AM EDT on September 02, 2014 (GMT -0400)
Spring Oaks | Change Station
CLOSE
Current Station
Personal Weather Station
Location: Altamonte Springs, FL
Elevation: 84 ft
Nearby Weather Stations

Elev 84 ft 28.67 °N, 81.42 °W | Updated 4 minutes ago

Clear
Clear
76.0 °F
Feels Like 75 °F
N
0.0
Wind Variable Wind from SE
Gusts 0.0 mph

Today
High -- | Low -- °F
--% Chance of Precip.
Yesterday
High -- | Low -- °F
Precip. -- in
7:04 AM 7:45 PM
Waxing Crescent, 51% visible
Pressure 30.09 in
Visibility 10.0 miles
Clouds Clear
Heat Index 75 °F
Dew Point 74 °F
Humidity 95%
Rainfall 0.00 in
Snow Depth Not available.
UV 1 out of 12
Pollen 7.80 out of 12
Air Quality Not available.
Flu Activity Not available.
METAR KORL 021153Z 00000KT 10SM CLR 27/23 A3008 RMK AO2 SLP188 T02670233 10272 20250 53011

More Conditions Fewer Conditions

Pressure 30.09 in
Visibility 10.0 miles
Clouds Clear
Heat Index 75 °F
Dew Point 74 °F
Humidity 95%
Rainfall 0.00 in
Snow Depth Not available.
UV 1 out of 12
Pollen 7.80 out of 12
Air Quality Not available.
Flu Activity Not available.
METAR KORL 021153Z 00000KT 10SM CLR 27/23 A3008 RMK AO2 SLP188 T02670233 10272 20250 53011

More Conditions Fewer Conditions

10-Day Weather Forecast

Almanac

Astronomy

Sep. 02, 2014 Rise Set
Actual Time 7:04 AM EDT 7:45 PM EDT
Civil Twilight 6:40 AM EDT 8:09 PM EDT
Nautical Twilight 6:11 AM EDT 8:37 PM EDT
Astronomical Twilight 5:43 AM EDT 9:06 PM EDT
Moon 2:13 PM EDT 12:19 AM EDT
Length of Visible Light 13h 29m
Length of Day
12h 41m
Tomorrow will be 1m 39s shorter.
Waxing Crescent, 51% of the Moon is Illuminated
Today
Waxing Crescent
Sep 8
Full
Sep 15
Last Quarter
Sep 24
New
Oct 1
First Quarter

Today's Extremes

State Highs State Lows

Community

WunderPhotos

Upload Photos

1,749,622 photos uploaded!

WunderBlogs® & News

By Dr. Jeff Masters
Director of Meteorology, Weather Underground
By Kari Strenfel
Meteorologist, Weather Underground
By Christopher C. Burt
Weather Historian, Weather Underground
September 2, 2014
September 2, 2014
September 2, 2014

Nearby

Snow Depth

Station Depth Elevation
No new snow has been reported.

Earthquake Activity

City Distance Mag. Time & Date
No recent earthquake activity has been reported nearby.
Minimum magnitude displayed is 2.5.

Coastal Water Temperatures

Place Temperature
No Stations Reporting

Nearby Weather Stations